Current | Forecast
Updated: 11:30 AM MSK on April 26, 2018
Observed at Botovo, Russia
Temperature 50°F
Humidity 76%
Dew Point 43°F
Wind SSW at 7 mph
Wind Gust 18 mph
Pressure 29.42 in (Steady)
Conditions Mostly Cloudy
Visibility 6.2 miles
UV 3 out of 16
Clouds Mostly Cloudy (BKN) : 1600 ft
Yesterday's Maximum 48°F
Yesterday's Minimum 37°F approx.
Yesterday's Heating Degree Days 22 approx.
Sunrise4:47 AM MSK
Sunset8:11 PM MSK
Moon Rise3:11 PM MSK
Moon Set4:22 AM MSK
Moon PhaseMoon Phase
Waxing Gibbous
Raw METARMETAR ULWC 260830Z 21003G08MPS 9999 BKN016CB 10/06 Q0996 R21/290159 NOSIG RMK QFE737/0983


Monday
. High: 57° F.
Tuesday
. High: 55° F.
Wednesday
. High: 55° F.
Thursday
. High: 55° F.
Friday
. High: 57° F.
Saturday
. High: 59° F.
Sunday
. High: 62° F.
Monday
. High: 59° F.

Units: English | Metric

Find the Weather for any City, State or Zipcode, or Country:

U.S. State List | Severe Weather | Tropical Storms | Ski Conditions
United States | Canada | Central America | South America | Asia | Europe | Australia | Africa | Islands

Weather Underground

© Copyright 2018
The Weather Company, LLC